Time;durP1;ratioP1;P1;durP2;ratioP2;P2;SDS_P1;SDS_P2;PMS_P1;PMS_P2;Temp;Humidity;BMP_temperature;BMP_pressure;BME280_temperature;BME280_humidity;BME280_pressure;Samples;Min_cycle;Max_cycle;Signal;HPM_P1;HPM_P2
2023/09/17 00:00:36;;;;;;;9.93;8.07;;;;;;;;;;4898665;29;20041;-87
2023/09/17 00:03:03;;;;;;;12.57;8.45;;;;;;;;;;4903234;29;20402;-87
2023/09/17 00:05:29;;;;;;;9.75;7.93;;;;;;;;;;4919457;29;20025;-88
2023/09/17 00:07:55;;;;;;;11.43;7.57;;;;;;;;;;4920366;29;20036;-86
2023/09/17 00:10:22;;;;;;;10.25;7.93;;;20.00;99.90;;;;;;4921137;29;20029;-87
2023/09/17 00:12:48;;;;;;;11.90;8.65;;;;;;;;;;4928991;29;20032;-88
2023/09/17 00:15:15;;;;;;;10.57;8.40;;;;;;;;;;4902702;29;20024;-88
2023/09/17 00:17:41;;;;;;;9.40;7.50;;;;;;;;;;4897936;29;20033;-88
2023/09/17 00:20:10;;;;;;;9.52;7.60;;;19.90;99.90;;;;;;4895256;29;20040;-88
2023/09/17 00:22:37;;;;;;;11.43;8.23;;;19.90;99.90;;;;;;4917106;29;20498;-87
2023/09/17 00:25:04;;;;;;;10.93;8.75;;;;;;;;;;4914642;29;20041;-87
2023/09/17 00:27:30;;;;;;;11.25;7.75;;;;;;;;;;4901781;29;20036;-89
2023/09/17 00:29:56;;;;;;;11.32;8.07;;;;;;;;;;4898890;29;20047;-87
2023/09/17 00:32:22;;;;;;;13.27;8.90;;;;;;;;;;4894135;29;20033;-90
2023/09/17 00:34:48;;;;;;;11.85;8.10;;;;;;;;;;4904226;29;20051;-89
2023/09/17 00:37:14;;;;;;;10.30;8.10;;;;;;;;;;4915100;29;20033;-89
2023/09/17 00:39:40;;;;;;;10.65;8.10;;;;;;;;;;4893950;29;20029;-89
2023/09/17 00:42:06;;;;;;;11.68;8.13;;;19.90;99.90;;;;;;4895462;29;20039;-89
2023/09/17 00:44:32;;;;;;;9.65;8.15;;;19.80;99.90;;;;;;4912852;29;20033;-87
2023/09/17 00:47:00;;;;;;;10.85;8.50;;;19.80;99.90;;;;;;4908388;29;20181;-89
2023/09/17 00:49:27;;;;;;;14.00;9.32;;;;;;;;;;4903464;29;20024;-89
2023/09/17 00:51:53;;;;;;;11.00;8.40;;;;;;;;;;4903160;29;20060;-87
2023/09/17 00:54:22;;;;;;;14.27;10.00;;;19.80;99.90;;;;;;4904898;29;20040;-88
2023/09/17 00:56:49;;;;;;;11.82;8.57;;;19.80;99.90;;;;;;4914642;29;20041;-88
2023/09/17 00:59:15;;;;;;;11.30;8.27;;;;;;;;;;4916388;29;20067;-89
2023/09/17 01:01:42;;;;;;;9.73;8.25;;;19.70;99.90;;;;;;4901722;29;20033;-88
2023/09/17 01:04:08;;;;;;;11.07;8.27;;;19.70;99.90;;;;;;4896917;29;20127;-89
2023/09/17 01:06:38;;;;;;;10.80;8.80;;;19.70;99.90;;;;;;4910376;29;20024;-90
2023/09/17 01:09:05;;;;;;;12.25;8.73;;;19.60;99.90;;;;;;4893391;29;20554;-90
2023/09/17 01:11:31;;;;;;;12.35;9.05;;;;;;;;;;4898919;29;20036;-89
2023/09/17 01:14:12;;;;;;;13.90;9.05;;;;;;;;;;4900231;29;20470;-88
2023/09/17 01:16:41;;;;;;;10.73;8.85;;;19.60;99.90;;;;;;4913875;29;20116;-89
2023/09/17 01:19:11;;;;;;;10.68;8.23;;;19.60;99.90;;;;;;4917026;29;20418;-89
2023/09/17 01:21:45;;;;;;;11.82;8.80;;;19.60;99.90;;;;;;4915570;29;20037;-90
2023/09/17 01:24:40;;;;;;;11.13;8.20;;;19.50;99.90;;;;;;4901724;29;20028;-89
2023/09/17 01:27:07;;;;;;;11.90;8.82;;;19.60;99.90;;;;;;4898010;29;20025;-88
2023/09/17 01:29:39;;;;;;;12.25;7.80;;;19.60;99.90;;;;;;4917196;29;20037;-87
2023/09/17 01:32:06;;;;;;;12.60;8.35;;;19.60;99.90;;;;;;4901757;29;20037;-89
2023/09/17 01:34:37;;;;;;;11.63;8.18;;;19.60;99.90;;;;;;4915170;29;20039;-90
2023/09/17 01:37:07;;;;;;;10.27;8.30;;;19.60;99.90;;;;;;4896134;29;20097;-88
2023/09/17 01:39:41;;;;;;;9.90;7.22;;;19.60;99.90;;;;;;4909504;29;20123;-88
2023/09/17 01:42:07;;;;;;;9.75;7.60;;;;;;;;;;4892263;29;20025;-88
2023/09/17 01:44:33;;;;;;;10.55;7.40;;;;;;;;;;4899296;29;20047;-87
2023/09/17 01:47:00;;;;;;;10.45;8.07;;;;;;;;;;4898661;29;20056;-87
2023/09/17 01:49:28;;;;;;;9.02;7.40;;;18.90;99.90;;;;;;4896068;29;20027;-89
2023/09/17 01:51:56;;;;;;;10.80;7.82;;;19.60;99.90;;;;;;4913108;29;20044;-88
2023/09/17 01:54:22;;;;;;;12.02;8.02;;;;;;;;;;4924855;29;20040;-88
2023/09/17 01:56:48;;;;;;;10.63;8.25;;;;;;;;;;4906592;29;20033;-88
2023/09/17 01:59:14;;;;;;;10.15;7.40;;;;;;;;;;4901798;29;20124;-89
2023/09/17 02:01:42;;;;;;;10.15;7.30;;;;;;;;;;4893655;29;20049;-88
2023/09/17 02:04:08;;;;;;;11.43;7.97;;;;;;;;;;4915199;29;20023;-87
2023/09/17 02:06:36;;;;;;;11.60;7.95;;;;;;;;;;4917243;29;20016;-86
2023/09/17 02:09:05;;;;;;;10.77;7.63;;;;;;;;;;4917972;29;20085;-86
2023/09/17 02:11:31;;;;;;;8.73;7.00;;;;;;;;;;4916555;28;20024;-86
2023/09/17 02:13:56;;;;;;;11.15;7.72;;;19.60;99.90;;;;;;4898249;29;20849;-86
2023/09/17 02:16:23;;;;;;;10.88;8.15;;;;;;;;;;4912956;29;20032;-88
2023/09/17 02:18:51;;;;;;;8.80;7.30;;;;;;;;;;4892450;29;20045;-90
2023/09/17 02:21:17;;;;;;;10.57;7.45;;;;;;;;;;4891413;29;20037;-87
2023/09/17 02:23:44;;;;;;;10.30;7.60;;;;;;;;;;4900555;29;20528;-86
2023/09/17 02:26:10;;;;;;;9.38;7.45;;;;;;;;;;4901313;29;20076;-87
2023/09/17 02:28:36;;;;;;;9.88;7.30;;;;;;;;;;4898439;29;20048;-89
2023/09/17 02:31:02;;;;;;;12.23;7.82;;;;;;;;;;4906014;29;20043;-86
2023/09/17 02:33:29;;;;;;;10.75;8.27;;;;;;;;;;4900380;29;20033;-88
2023/09/17 02:35:55;;;;;;;11.10;7.25;;;;;;;;;;4900231;29;20053;-89
2023/09/17 02:38:21;;;;;;;10.68;7.70;;;;;;;;;;4901721;29;20040;-88
2023/09/17 02:40:47;;;;;;;9.18;7.30;;;;;;;;;;4904116;29;20490;-87
2023/09/17 02:43:13;;;;;;;8.65;7.30;;;19.50;99.90;;;;;;4902974;29;20029;-86
2023/09/17 02:45:39;;;;;;;9.00;7.18;;;;;;;;;;4918405;29;20025;-88
2023/09/17 02:48:05;;;;;;;8.65;7.10;;;19.40;99.90;;;;;;4918791;29;20111;-88
2023/09/17 02:50:31;;;;;;;10.88;6.78;;;19.40;99.90;;;;;;4904723;29;20107;-87
2023/09/17 02:52:58;;;;;;;10.32;6.50;;;;;;;;;;4920704;29;20048;-88
2023/09/17 02:55:24;;;;;;;11.05;6.68;;;;;;;;;;4903403;29;20072;-88
2023/09/17 02:57:50;;;;;;;8.85;6.85;;;;;;;;;;4903256;29;20032;-89
2023/09/17 03:00:17;;;;;;;9.05;6.75;;;;;;;;;;4899002;29;20037;-89
2023/09/17 03:02:47;;;;;;;10.82;6.70;;;;;;;;;;4903939;29;20057;-89
2023/09/17 03:05:14;;;;;;;9.68;6.88;;;;;;;;;;4902659;29;20029;-89
2023/09/17 03:07:40;;;;;;;9.30;6.45;;;;;;;;;;4907704;29;20119;-88
2023/09/17 03:10:10;;;;;;;9.40;6.88;;;19.30;99.90;;;;;;4904746;29;20562;-89
2023/09/17 03:12:36;;;;;;;9.65;6.57;;;;;;;;;;4917777;29;20035;-88
2023/09/17 03:15:05;;;;;;;8.52;6.35;;;19.30;99.90;;;;;;4904687;29;20120;-88
2023/09/17 03:17:31;;;;;;;8.95;6.68;;;;;;;;;;4901830;29;20052;-88
2023/09/17 03:19:57;;;;;;;9.10;6.43;;;;;;;;;;4919512;29;20115;-88
2023/09/17 03:22:23;;;;;;;8.57;6.35;;;;;;;;;;4915806;29;20490;-87
2023/09/17 03:24:49;;;;;;;7.95;6.10;;;;;;;;;;4903959;29;20084;-89
2023/09/17 03:27:15;;;;;;;10.27;6.22;;;;;;;;;;4918682;29;20027;-89
2023/09/17 03:29:41;;;;;;;8.18;6.18;;;;;;;;;;4906320;29;20028;-89
2023/09/17 03:32:07;;;;;;;7.90;6.00;;;;;;;;;;4909332;29;20033;-89
2023/09/17 03:34:34;;;;;;;9.15;6.30;;;;;;;;;;4905687;29;20040;-88
2023/09/17 03:37:00;;;;;;;9.82;6.32;;;;;;;;;;4904063;29;20051;-88
2023/09/17 03:39:26;;;;;;;9.75;7.28;;;;;;;;;;4901292;29;20480;-89
2023/09/17 03:41:52;;;;;;;8.82;5.88;;;;;;;;;;4900497;29;20060;-90
2023/09/17 03:44:18;;;;;;;8.85;6.47;;;;;;;;;;4898592;29;20037;-86
2023/09/17 03:46:44;;;;;;;9.38;6.20;;;;;;;;;;4899715;29;20020;-90
2023/09/17 03:49:10;;;;;;;8.73;6.10;;;;;;;;;;4915840;29;20033;-88
2023/09/17 03:51:36;;;;;;;9.20;6.07;;;;;;;;;;4903655;29;20037;-88
2023/09/17 03:54:02;;;;;;;9.90;6.60;;;;;;;;;;4904060;29;20032;-89
2023/09/17 03:56:28;;;;;;;7.78;5.47;;;19.00;99.90;;;;;;4901573;29;20384;-89
2023/09/17 03:58:54;;;;;;;12.88;5.97;;;;;;;;;;4901899;29;20041;-89
2023/09/17 04:01:20;;;;;;;11.10;5.35;;;;;;;;;;4905505;29;20051;-89
2023/09/17 04:03:46;;;;;;;7.72;5.45;;;18.90;99.90;;;;;;4904766;29;20028;-87
2023/09/17 04:06:12;;;;;;;6.35;5.10;;;;;;;;;;4906673;29;20029;-86
2023/09/17 04:08:37;;;;;;;8.68;5.55;;;18.90;99.90;;;;;;4905340;29;20033;-85
2023/09/17 04:11:04;;;;;;;8.50;5.65;;;19.80;99.90;;;;;;4906415;29;20036;-88
2023/09/17 04:13:30;;;;;;;6.20;5.10;;;;;;;;;;4901386;29;20147;-89
2023/09/17 04:15:56;;;;;;;7.38;4.95;;;;;;;;;;4899421;29;20028;-87
2023/09/17 04:18:22;;;;;;;8.23;5.15;;;;;;;;;;4907215;29;20036;-88
2023/09/17 04:20:48;;;;;;;6.50;4.78;;;;;;;;;;4904423;29;20673;-88
2023/09/17 04:23:16;;;;;;;8.13;4.80;;;;;;;;;;4904810;29;20051;-87
2023/09/17 04:25:41;;;;;;;8.20;5.47;;;18.80;99.90;;;;;;4904741;29;20048;-88
2023/09/17 04:28:07;;;;;;;6.93;4.88;;;18.80;99.90;;;;;;4905435;29;20032;-86
2023/09/17 04:30:33;;;;;;;8.95;5.13;;;18.80;99.90;;;;;;4920372;29;20085;-90
2023/09/17 04:32:59;;;;;;;6.68;5.18;;;;;;;;;;4921610;29;20036;-88
2023/09/17 04:35:25;;;;;;;8.02;5.20;;;;;;;;;;4908245;29;20483;-88
2023/09/17 04:37:51;;;;;;;7.20;5.32;;;;;;;;;;4906220;29;20124;-87
2023/09/17 04:40:17;;;;;;;8.32;5.18;;;18.70;99.90;;;;;;4904436;29;20076;-88
2023/09/17 04:42:44;;;;;;;6.95;4.75;;;18.70;99.90;;;;;;4916400;29;20029;-88
2023/09/17 04:45:11;;;;;;;7.13;5.07;;;;;;;;;;4906042;29;20031;-87
2023/09/17 04:47:38;;;;;;;6.15;4.68;;;18.60;99.90;;;;;;4902910;29;20020;-88
2023/09/17 04:50:08;;;;;;;7.63;4.90;;;18.60;99.90;;;;;;4903932;29;20033;-89
2023/09/17 04:52:34;;;;;;;9.20;5.32;;;;;;;;;;4925687;29;20028;-87
2023/09/17 04:55:00;;;;;;;9.13;5.88;;;;;;;;;;4916605;29;20045;-89
2023/09/17 04:57:26;;;;;;;8.85;5.60;;;;;;;;;;4919811;29;20016;-87
2023/09/17 04:59:52;;;;;;;10.90;6.15;;;;;;;;;;4940190;28;20088;-86
2023/09/17 05:02:17;;;;;;;14.13;5.80;;;18.50;99.90;;;;;;4927687;28;20104;-87
2023/09/17 05:04:44;;;;;;;10.25;5.65;;;;;;;;;;4928595;29;20061;-87
2023/09/17 05:07:11;;;;;;;7.45;5.15;;;;;;;;;;4907911;29;20033;-88
2023/09/17 05:09:37;;;;;;;10.48;5.10;;;18.50;99.90;;;;;;4907130;29;20051;-89
2023/09/17 05:12:04;;;;;;;8.90;5.10;;;18.50;99.90;;;;;;4914250;29;20111;-89
2023/09/17 05:14:30;;;;;;;10.52;5.40;;;;;;;;;;4898105;29;20036;-89
2023/09/17 05:16:56;;;;;;;10.20;4.90;;;;;;;;;;4914762;29;20357;-89
2023/09/17 05:19:22;;;;;;;7.18;5.28;;;;;;;;;;4905622;29;20039;-90
2023/09/17 05:21:49;;;;;;;10.10;5.00;;;;;;;;;;4902044;29;20037;-89
2023/09/17 05:24:15;;;;;;;8.55;5.03;;;18.30;99.90;;;;;;4915311;29;20478;-89
2023/09/17 05:26:41;;;;;;;8.02;5.10;;;;;;;;;;4905588;29;20032;-90
2023/09/17 05:29:10;;;;;;;8.48;4.82;;;18.20;99.90;;;;;;4900806;29;20028;-88
2023/09/17 05:31:36;;;;;;;8.45;5.10;;;18.30;99.90;;;;;;4900209;29;20436;-89
2023/09/17 05:34:03;;;;;;;8.20;5.40;;;;;;;;;;4907686;29;20036;-89
2023/09/17 05:36:30;;;;;;;8.95;5.93;;;;;;;;;;4899532;29;20033;-88
2023/09/17 05:38:57;;;;;;;8.60;5.28;;;;;;;;;;4901252;29;20143;-88
2023/09/17 05:41:23;;;;;;;9.45;5.60;;;;;;;;;;4907860;29;20501;-90
2023/09/17 05:43:49;;;;;;;7.32;5.43;;;;;;;;;;4915018;29;20047;-86
2023/09/17 05:46:14;;;;;;;8.32;4.93;;;18.30;99.90;;;;;;4930898;29;20100;-87
2023/09/17 05:48:40;;;;;;;9.85;4.90;;;;;;;;;;4915827;29;20346;-88
2023/09/17 05:51:07;;;;;;;9.15;5.30;;;;;;;;;;4917819;29;20025;-88
2023/09/17 05:53:33;;;;;;;9.35;5.30;;;;;;;;;;4919157;29;20033;-86
2023/09/17 05:55:59;;;;;;;8.57;5.32;;;;;;;;;;4910554;29;20057;-89
2023/09/17 05:58:25;;;;;;;10.13;5.28;;;;;;;;;;4910185;29;20033;-88
2023/09/17 06:00:53;;;;;;;9.20;5.63;;;;;;;;;;4916899;29;20366;-87
2023/09/17 06:03:19;;;;;;;11.35;5.47;;;;;;;;;;4913512;29;20025;-85
2023/09/17 06:05:45;;;;;;;8.45;4.65;;;;;;;;;;4923277;29;20017;-86
2023/09/17 06:08:11;;;;;;;7.22;4.60;;;;;;;;;;4926641;29;20027;-86
2023/09/17 06:10:37;;;;;;;8.70;5.30;;;;;;;;;;4922439;29;20036;-86
2023/09/17 06:13:03;;;;;;;8.85;5.10;;;;;;;;;;4911831;29;20032;-86
2023/09/17 06:15:29;;;;;;;7.70;4.93;;;;;;;;;;4914704;29;20037;-86
2023/09/17 06:17:55;;;;;;;6.10;4.60;;;;;;;;;;4918209;29;20024;-86
2023/09/17 06:20:22;;;;;;;7.47;4.63;;;;;;;;;;4916283;29;20057;-87
2023/09/17 06:22:48;;;;;;;8.18;4.75;;;;;;;;;;4916182;29;20057;-87
2023/09/17 06:25:15;;;;;;;6.47;4.82;;;;;;;;;;4919742;29;20048;-86
2023/09/17 06:27:41;;;;;;;7.38;5.10;;;;;;;;;;4912226;29;20047;-87
2023/09/17 06:30:08;;;;;;;7.57;5.07;;;;;;;;;;4913925;29;20029;-87
2023/09/17 06:32:34;;;;;;;8.40;5.22;;;;;;;;;;4928810;29;20033;-88
2023/09/17 06:35:00;;;;;;;8.90;4.93;;;;;;;;;;4917240;29;20040;-88
2023/09/17 06:37:28;;;;;;;7.40;4.88;;;;;;;;;;4912987;29;20024;-88
2023/09/17 06:39:54;;;;;;;8.30;5.45;;;;;;;;;;4912311;29;20029;-87
2023/09/17 06:42:20;;;;;;;7.55;5.38;;;;;;;;;;4910557;29;20023;-88
2023/09/17 06:44:46;;;;;;;8.20;5.78;;;;;;;;;;4905612;29;20025;-88
2023/09/17 06:47:13;;;;;;;9.73;4.90;;;;;;;;;;4909184;29;20047;-88
2023/09/17 06:49:39;;;;;;;8.10;4.70;;;;;;;;;;4909122;29;20036;-88
2023/09/17 06:52:05;;;;;;;7.70;4.63;;;;;;;;;;4902602;29;20032;-87
2023/09/17 06:54:31;;;;;;;10.05;4.72;;;;;;;;;;4906530;29;20044;-86
2023/09/17 06:56:57;;;;;;;7.85;4.80;;;;;;;;;;4920047;29;20041;-88
2023/09/17 06:59:23;;;;;;;11.60;4.78;;;;;;;;;;4905977;29;20029;-86
2023/09/17 07:01:49;;;;;;;8.52;5.00;;;;;;;;;;4924985;29;20519;-87
2023/09/17 07:04:15;;;;;;;8.23;5.00;;;;;;;;;;4908271;29;20025;-88
2023/09/17 07:06:41;;;;;;;8.50;4.53;;;;;;;;;;4911805;29;20535;-88
2023/09/17 07:09:07;;;;;;;10.73;4.50;;;;;;;;;;4913086;29;20093;-87
2023/09/17 07:11:33;;;;;;;7.60;4.25;;;;;;;;;;4928504;29;20028;-86
2023/09/17 07:14:02;;;;;;;8.65;3.90;;;;;;;;;;4912782;29;20033;-83
2023/09/17 07:16:28;;;;;;;6.13;3.75;;;;;;;;;;4904814;29;20045;-85
2023/09/17 07:18:54;;;;;;;5.78;3.58;;;;;;;;;;4893704;29;20040;-85
2023/09/17 07:21:20;;;;;;;7.40;3.72;;;;;;;;;;4909071;29;20038;-84
2023/09/17 07:23:50;;;;;;;5.18;3.22;;;;;;;;;;4915023;29;20025;-86
2023/09/17 07:26:16;;;;;;;6.43;3.23;;;;;;;;;;4910087;29;20035;-86
2023/09/17 07:28:43;;;;;;;7.10;3.88;;;;;;;;;;4907236;29;20529;-85
2023/09/17 07:31:11;;;;;;;5.72;3.40;;;;;;;;;;4924571;29;20077;-84
2023/09/17 07:33:39;;;;;;;5.80;3.83;;;;;;;;;;4910313;29;20043;-84
2023/09/17 07:36:06;;;;;;;8.95;3.45;;;20.50;99.90;;;;;;4908681;29;20041;-85
2023/09/17 07:38:32;;;;;;;9.15;3.92;;;;;;;;;;4924432;29;20044;-84
2023/09/17 07:40:58;;;;;;;6.40;3.60;;;;;;;;;;4911547;29;20100;-86
2023/09/17 07:43:24;;;;;;;5.47;3.58;;;;;;;;;;4919264;29;20057;-83
2023/09/17 07:45:50;;;;;;;8.88;4.03;;;;;;;;;;4921846;29;20043;-85
2023/09/17 07:48:16;;;;;;;6.30;3.60;;;;;;;;;;4937866;29;20020;-84
2023/09/17 07:50:43;;;;;;;5.65;3.70;;;;;;;;;;4910407;29;20061;-84
2023/09/17 07:53:10;;;;;;;7.15;3.90;;;;;;;;;;4907816;29;20040;-88
2023/09/17 07:55:36;;;;;;;8.88;4.20;;;;;;;;;;4922668;29;20033;-84
2023/09/17 07:58:03;;;;;;;7.38;3.95;;;;;;;;;;4910844;29;20063;-82
2023/09/17 08:00:29;;;;;;;6.15;3.42;;;;;;;;;;4922076;29;20560;-86
2023/09/17 08:02:55;;;;;;;8.30;3.78;;;;;;;;;;4907114;29;20039;-85
2023/09/17 08:05:21;;;;;;;8.30;3.88;;;;;;;;;;4910450;29;20032;-85
2023/09/17 08:07:48;;;;;;;6.18;3.40;;;;;;;;;;4911750;29;20076;-86
2023/09/17 08:10:14;;;;;;;5.07;2.83;;;;;;;;;;4907669;29;20024;-84
2023/09/17 08:12:40;;;;;;;4.80;3.08;;;;;;;;;;4911141;29;20390;-84
2023/09/17 08:15:07;;;;;;;3.90;2.95;;;;;;;;;;4905831;29;20056;-85
2023/09/17 08:17:33;;;;;;;6.80;3.42;;;;;;;;;;4908036;29;20036;-84
2023/09/17 08:19:59;;;;;;;7.53;3.55;;;;;;;;;;4903885;29;20028;-87
2023/09/17 08:22:27;;;;;;;5.47;3.25;;;;;;;;;;4907920;29;20048;-84
2023/09/17 08:24:53;;;;;;;8.40;2.95;;;;;;;;;;4905899;29;20036;-83
2023/09/17 08:27:19;;;;;;;6.70;2.88;;;;;;;;;;4905399;29;20033;-86
2023/09/17 08:29:45;;;;;;;5.65;2.95;;;;;;;;;;4907404;29;20027;-85
2023/09/17 08:32:12;;;;;;;5.13;2.85;;;;;;;;;;4904690;29;20037;-85
2023/09/17 08:34:38;;;;;;;7.18;3.45;;;;;;;;;;4908002;29;20032;-85
2023/09/17 08:37:04;;;;;;;6.05;3.25;;;;;;;;;;4907482;29;20043;-84
2023/09/17 08:39:31;;;;;;;6.15;2.97;;;;;;;;;;4899575;29;20040;-84
2023/09/17 08:41:59;;;;;;;9.00;3.00;;;;;;;;;;4907025;29;20024;-85
2023/09/17 08:44:26;;;;;;;7.38;3.17;;;;;;;;;;4916366;29;20459;-86
2023/09/17 08:46:53;;;;;;;5.05;2.85;;;;;;;;;;4903360;29;20044;-86
2023/09/17 08:49:19;;;;;;;7.38;3.40;;;;;;;;;;4901916;29;20902;-86
2023/09/17 08:51:47;;;;;;;6.30;3.17;;;;;;;;;;4905098;29;20036;-85
2023/09/17 08:54:26;;;;;;;7.35;3.30;;;;;;;;;;4896343;29;20092;-87
2023/09/17 08:56:54;;;;;;;6.60;2.88;;;23.60;99.90;;;;;;4901206;29;20033;-86
2023/09/17 08:59:27;;;;;;;7.63;3.25;;;;;;;;;;4902921;29;20399;-88
2023/09/17 09:01:57;;;;;;;4.75;2.97;;;;;;;;;;4900630;29;20032;-86
2023/09/17 09:04:23;;;;;;;6.60;3.05;;;;;;;;;;4921475;29;20021;-85
2023/09/17 09:06:49;;;;;;;5.57;2.92;;;;;;;;;;4915987;29;20112;-86
2023/09/17 09:09:16;;;;;;;7.07;3.72;;;;;;;;;;4912949;29;20048;-84
2023/09/17 09:11:42;;;;;;;4.93;3.15;;;;;;;;;;4921907;29;20029;-86
2023/09/17 09:14:08;;;;;;;8.85;3.22;;;;;;;;;;4911807;29;20036;-86
2023/09/17 09:16:37;;;;;;;6.32;3.00;;;;;;;;;;4911271;29;20056;-86
2023/09/17 09:19:03;;;;;;;6.28;3.17;;;;;;;;;;4924793;29;20600;-85
2023/09/17 09:21:29;;;;;;;7.35;3.08;;;;;;;;;;4904910;29;20127;-85
2023/09/17 09:23:58;;;;;;;5.40;2.78;;;24.30;99.90;;;;;;4908588;29;20373;-85
2023/09/17 09:26:38;;;;;;;6.93;2.77;;;24.40;99.90;;;;;;4913836;29;20475;-85
2023/09/17 09:29:05;;;;;;;5.75;2.92;;;24.50;99.90;;;;;;4902062;29;20077;-85
2023/09/17 09:31:31;;;;;;;7.07;3.30;;;24.60;99.90;;;;;;4902305;29;20410;-86
2023/09/17 09:34:01;;;;;;;7.88;3.97;;;24.70;99.90;;;;;;4913900;29;20032;-86
2023/09/17 09:36:28;;;;;;;8.63;3.15;;;24.80;99.90;;;;;;4899543;29;20151;-85
2023/09/17 09:38:56;;;;;;;5.80;3.20;;;24.80;99.90;;;;;;4915770;29;20037;-85
2023/09/17 09:41:22;;;;;;;9.15;3.25;;;;;;;;;;4917430;29;20033;-87
2023/09/17 09:43:50;;;;;;;11.18;4.28;;;;;;;;;;4897041;29;20033;-85
2023/09/17 09:46:16;;;;;;;9.68;3.40;;;;;;;;;;4898673;29;20024;-85
2023/09/17 09:48:42;;;;;;;7.32;4.15;;;;;;;;;;4900088;29;20066;-86
2023/09/17 09:51:09;;;;;;;6.68;3.58;;;;;;;;;;4902876;29;20033;-84
2023/09/17 09:53:35;;;;;;;7.85;3.83;;;;;;;;;;4898258;29;20396;-85
2023/09/17 09:56:03;;;;;;;7.82;3.13;;;25.20;99.90;;;;;;4901434;29;20509;-84
2023/09/17 09:58:29;;;;;;;6.40;3.10;;;;;;;;;;4898803;29;20187;-84
2023/09/17 10:00:57;;;;;;;10.18;3.42;;;25.20;99.90;;;;;;4913666;29;20032;-85
2023/09/17 10:03:24;;;;;;;5.90;3.20;;;;;;;;;;4899479;29;20097;-85
2023/09/17 10:05:50;;;;;;;7.07;3.08;;;;;;;;;;4898673;29;20078;-85
2023/09/17 10:08:17;;;;;;;5.90;2.80;;;;;;;;;;4903370;29;20570;-85
2023/09/17 10:10:43;;;;;;;7.07;3.03;;;;;;;;;;4899957;29;20025;-86
2023/09/17 10:13:10;;;;;;;5.45;2.72;;;25.60;99.90;;;;;;4899098;29;20101;-86
2023/09/17 10:15:37;;;;;;;8.68;2.90;;;;;;;;;;4901482;29;20107;-86
2023/09/17 10:18:08;;;;;;;7.05;2.85;;;;;;;;;;4904489;29;20029;-84
2023/09/17 10:20:34;;;;;;;8.07;3.00;;;;;;;;;;4902891;29;20052;-86
2023/09/17 10:23:01;;;;;;;4.60;2.53;;;;;;;;;;4898475;29;20032;-86
2023/09/17 10:25:28;;;;;;;11.52;6.10;;;25.60;99.90;;;;;;4900907;29;20472;-85
2023/09/17 10:27:55;;;;;;;7.00;3.33;;;;;;;;;;4905323;29;20045;-86
2023/09/17 10:30:22;;;;;;;10.65;2.75;;;24.30;99.90;;;;;;4903305;29;20060;-85
2023/09/17 10:32:48;;;;;;;12.27;4.05;;;;;;;;;;4891624;29;20037;-85
2023/09/17 10:35:14;;;;;;;7.55;3.08;;;;;;;;;;4900770;29;20033;-85
2023/09/17 10:37:41;;;;;;;8.02;3.20;;;;;;;;;;4899828;29;20037;-85
2023/09/17 10:40:09;;;;;;;9.15;3.13;;;26.00;99.90;;;;;;4896647;29;20029;-85
2023/09/17 10:42:38;;;;;;;7.55;2.92;;;25.90;99.90;;;;;;4906515;29;20040;-84
2023/09/17 10:45:07;;;;;;;7.22;3.38;;;25.90;99.90;;;;;;4903613;29;20029;-85
2023/09/17 10:47:35;;;;;;;8.80;2.83;;;26.00;99.90;;;;;;4918980;29;20116;-85
2023/09/17 10:50:03;;;;;;;4.30;2.63;;;26.10;99.90;;;;;;4922025;29;20037;-83
2023/09/17 10:52:30;;;;;;;10.52;3.35;;;26.30;99.90;;;;;;4906089;29;20061;-83
2023/09/17 10:54:56;;;;;;;7.97;3.60;;;;;;;;;;4902425;29;20044;-83
2023/09/17 10:57:37;;;;;;;6.72;3.10;;;26.30;99.90;;;;;;4922238;29;20036;-83
2023/09/17 11:00:07;;;;;;;6.28;3.00;;;26.40;99.90;;;;;;4917879;29;20520;-83
2023/09/17 11:02:36;;;;;;;6.10;3.05;;;26.50;99.90;;;;;;4908225;29;20609;-85
2023/09/17 11:05:04;;;;;;;9.35;3.35;;;26.40;99.90;;;;;;4906024;29;20038;-84
2023/09/17 11:07:31;;;;;;;5.28;2.78;;;26.50;99.90;;;;;;4909718;29;20032;-84
2023/09/17 11:09:58;;;;;;;7.10;2.90;;;;;;;;;;4920888;29;20218;-82
2023/09/17 11:12:24;;;;;;;6.47;2.90;;;;;;;;;;4911499;29;20115;-85
2023/09/17 11:14:51;;;;;;;8.55;3.00;;;26.80;99.90;;;;;;4909303;29;20040;-85
2023/09/17 11:17:18;;;;;;;7.80;2.70;;;;;;;;;;4910302;29;20052;-83
2023/09/17 11:19:44;;;;;;;7.68;2.95;;;;;;;;;;4924939;29;20035;-84
2023/09/17 11:22:12;;;;;;;8.45;3.22;;;26.90;99.90;;;;;;4912721;29;20080;-83
2023/09/17 11:24:39;;;;;;;10.85;4.28;;;;;;;;;;4900092;29;20487;-83
2023/09/17 11:27:07;;;;;;;10.90;3.13;;;;;;;;;;4910028;29;20029;-82
2023/09/17 11:29:41;;;;;;;8.73;3.35;;;27.20;99.90;;;;;;4903729;29;20080;-82
2023/09/17 11:32:08;;;;;;;10.93;4.75;;;27.30;99.90;;;;;;4908803;29;20033;-85
2023/09/17 11:34:36;;;;;;;6.35;3.00;;;27.30;99.90;;;;;;4921837;29;20047;-83
2023/09/17 11:37:03;;;;;;;12.35;3.30;;;;;;;;;;4921447;29;20140;-83
2023/09/17 11:39:29;;;;;;;5.38;2.95;;;;;;;;;;4907835;29;20036;-84
2023/09/17 11:42:03;;;;;;;6.95;2.95;;;;;;;;;;4908126;29;20060;-82
2023/09/17 11:44:31;;;;;;;6.32;2.92;;;27.30;99.90;;;;;;4907565;29;20502;-84
2023/09/17 11:46:57;;;;;;;8.63;3.22;;;;;;;;;;4923280;29;20084;-83
2023/09/17 11:49:23;;;;;;;9.98;4.25;;;;;;;;;;4903021;29;20055;-84
2023/09/17 11:51:49;;;;;;;8.00;3.38;;;;;;;;;;4904058;29;20060;-84
2023/09/17 11:54:18;;;;;;;8.32;3.47;;;27.60;99.90;;;;;;4903094;29;20032;-82
2023/09/17 11:56:47;;;;;;;14.88;5.97;;;27.70;99.90;;;;;;4901741;29;20107;-83
2023/09/17 11:59:16;;;;;;;12.18;3.30;;;;;;;;;;4905535;29;20037;-85
2023/09/17 12:02:01;;;;;;;8.35;3.55;;;27.80;99.90;;;;;;4903940;29;20035;-84
2023/09/17 12:04:31;;;;;;;12.45;3.47;;;27.80;99.90;;;;;;4912715;29;20033;-83
2023/09/17 12:06:58;;;;;;;8.70;3.38;;;27.90;99.90;;;;;;4919189;28;20033;-82
2023/09/17 12:11:57;;;;;;;10.07;3.40;;;;;;;;;;4918050;29;20090;-85
2023/09/17 12:14:23;;;;;;;8.23;3.50;;;;;;;;;;4913825;29;20047;-83
2023/09/17 12:16:49;;;;;;;11.00;3.05;;;;;;;;;;4905708;29;20033;-83
2023/09/17 12:19:17;;;;;;;11.60;3.30;;;28.10;99.90;;;;;;4908297;29;20029;-82
2023/09/17 12:21:47;;;;;;;11.15;3.47;;;28.30;99.90;;;;;;4906024;29;20047;-83
2023/09/17 12:24:26;;;;;;;12.80;4.05;;;28.20;99.90;;;;;;4903925;29;20016;-83
2023/09/17 12:29:33;;;;;;;11.05;3.45;;;;;;;;;;4902695;29;20033;-85
2023/09/17 12:31:59;;;;;;;7.72;3.00;;;;;;;;;;4900976;29;20037;-83
2023/09/17 12:34:26;;;;;;;6.68;2.95;;;;;;;;;;4898808;29;20124;-83
2023/09/17 12:36:52;;;;;;;10.02;2.97;;;;;;;;;;4907907;29;20037;-83
2023/09/17 12:39:18;;;;;;;12.10;3.42;;;;;;;;;;4905265;29;21318;-83
2023/09/17 12:41:44;;;;;;;10.48;3.10;;;;;;;;;;4903980;29;20479;-86
2023/09/17 12:44:12;;;;;;;12.60;3.58;;;;;;;;;;4902012;29;20033;-82
2023/09/17 12:46:38;;;;;;;12.35;3.50;;;;;;;;;;4903522;29;20024;-82
2023/09/17 12:49:04;;;;;;;12.18;3.45;;;;;;;;;;4910116;29;20479;-85
2023/09/17 12:51:30;;;;;;;11.40;3.13;;;;;;;;;;4900744;29;20041;-84
2023/09/17 12:53:56;;;;;;;11.27;3.15;;;;;;;;;;4903439;29;20088;-83
2023/09/17 12:56:23;;;;;;;9.23;3.00;;;;;;;;;;4903158;29;20144;-85
2023/09/17 12:58:49;;;;;;;13.45;3.40;;;28.70;99.80;;;;;;4901984;29;20133;-84
2023/09/17 13:01:15;;;;;;;12.73;3.40;;;;;;;;;;4914003;29;20055;-84
2023/09/17 13:04:10;;;;;;;13.55;3.00;;;28.60;99.80;;;;;;4899041;29;20032;-80
2023/09/17 13:06:37;;;;;;;13.98;2.90;;;;;;;;;;4891214;29;20093;-83
2023/09/17 13:09:03;;;;;;;15.38;3.30;;;;;;;;;;4901172;29;20123;-83
2023/09/17 13:11:29;;;;;;;16.73;3.25;;;;;;;;;;4893387;29;20060;-84
2023/09/17 13:13:57;;;;;;;15.38;3.00;;;29.00;98.70;;;;;;4896128;29;20046;-85
2023/09/17 13:16:23;;;;;;;9.77;2.65;;;;;;;;;;4899507;29;20031;-84
2023/09/17 13:18:50;;;;;;;10.40;3.63;;;29.10;98.60;;;;;;4901417;29;20048;-82
2023/09/17 13:21:17;;;;;;;10.23;3.35;;;29.10;98.60;;;;;;4896643;29;20040;-83
2023/09/17 13:23:43;;;;;;;12.65;3.13;;;;;;;;;;4908872;29;20033;-82
2023/09/17 13:26:10;;;;;;;9.80;3.13;;;29.20;98.30;;;;;;4916659;29;20029;-83
2023/09/17 13:28:36;;;;;;;11.45;3.47;;;29.20;98.50;;;;;;4932267;29;20145;-82
2023/09/17 13:31:07;;;;;;;10.40;3.35;;;29.20;98.20;;;;;;4926521;29;20109;-82
2023/09/17 13:33:39;;;;;;;9.80;2.90;;;29.30;98.30;;;;;;4927252;29;20032;-83
2023/09/17 13:36:06;;;;;;;9.63;3.47;;;;;;;;;;4922164;29;20038;-82
2023/09/17 13:38:33;;;;;;;14.73;3.13;;;;;;;;;;4917542;29;20021;-82
2023/09/17 13:40:59;;;;;;;13.00;3.10;;;;;;;;;;4919153;29;20062;-83
2023/09/17 13:43:26;;;;;;;13.27;3.10;;;;;;;;;;4917488;28;20020;-82
2023/09/17 13:45:53;;;;;;;9.10;2.92;;;;;;;;;;4911874;28;20036;-84
2023/09/17 13:48:19;;;;;;;17.83;3.50;;;;;;;;;;4918144;29;20431;-82
2023/09/17 13:50:46;;;;;;;12.75;2.90;;;;;;;;;;4931603;28;20018;-83
2023/09/17 13:53:12;;;;;;;15.35;3.17;;;;;;;;;;4928648;28;20029;-85
2023/09/17 13:55:39;;;;;;;14.52;3.45;;;;;;;;;;4903877;29;20033;-84
2023/09/17 13:58:05;;;;;;;17.23;3.83;;;;;;;;;;4900910;29;20073;-84
2023/09/17 14:00:31;;;;;;;12.38;3.60;;;;;;;;;;4901075;29;20131;-84
2023/09/17 14:03:03;;;;;;;14.15;3.42;;;29.30;97.00;;;;;;4898344;29;20120;-83
2023/09/17 14:05:33;;;;;;;14.68;2.92;;;;;;;;;;4897049;29;20603;-84